sensor_id;sensor_type;location;lat;lon;timestamp;temperature;humidity
25906;DHT22;13713;52.552;13.204;2023-02-28T00:01:20;14.20;62.80
25906;DHT22;13713;52.552;13.204;2023-02-28T00:03:46;14.20;62.80
25906;DHT22;13713;52.552;13.204;2023-02-28T00:06:12;14.10;62.70
25906;DHT22;13713;52.552;13.204;2023-02-28T00:08:38;14.10;62.70
25906;DHT22;13713;52.552;13.204;2023-02-28T00:11:07;14.10;63.50
25906;DHT22;13713;52.552;13.204;2023-02-28T00:13:35;14.10;62.70
25906;DHT22;13713;52.552;13.204;2023-02-28T00:16:05;14.10;62.70
25906;DHT22;13713;52.552;13.204;2023-02-28T00:18:31;14.10;62.80
25906;DHT22;13713;52.552;13.204;2023-02-28T00:20:58;14.10;62.80
25906;DHT22;13713;52.552;13.204;2023-02-28T00:23:24;14.10;62.80
25906;DHT22;13713;52.552;13.204;2023-02-28T00:25:50;14.10;62.80
25906;DHT22;13713;52.552;13.204;2023-02-28T00:28:16;14.10;62.80
25906;DHT22;13713;52.552;13.204;2023-02-28T00:30:42;14.20;62.90
25906;DHT22;13713;52.552;13.204;2023-02-28T00:33:07;14.10;62.80
25906;DHT22;13713;52.552;13.204;2023-02-28T00:35:33;14.10;62.80
25906;DHT22;13713;52.552;13.204;2023-02-28T00:37:59;14.10;62.90
25906;DHT22;13713;52.552;13.204;2023-02-28T00:40:26;14.10;63.70
25906;DHT22;13713;52.552;13.204;2023-02-28T00:42:52;14.10;62.90
25906;DHT22;13713;52.552;13.204;2023-02-28T00:45:18;14.10;62.80
25906;DHT22;13713;52.552;13.204;2023-02-28T00:47:44;14.00;62.80
25906;DHT22;13713;52.552;13.204;2023-02-28T00:50:12;14.00;62.90
25906;DHT22;13713;52.552;13.204;2023-02-28T00:52:37;14.00;62.80
25906;DHT22;13713;52.552;13.204;2023-02-28T00:55:04;14.00;62.80
25906;DHT22;13713;52.552;13.204;2023-02-28T00:57:29;14.00;62.80
25906;DHT22;13713;52.552;13.204;2023-02-28T00:59:55;14.00;62.80
25906;DHT22;13713;52.552;13.204;2023-02-28T01:02:22;14.00;62.80
25906;DHT22;13713;52.552;13.204;2023-02-28T01:04:48;14.00;62.80
25906;DHT22;13713;52.552;13.204;2023-02-28T01:07:14;14.00;62.80
25906;DHT22;13713;52.552;13.204;2023-02-28T01:09:40;14.00;63.60
25906;DHT22;13713;52.552;13.204;2023-02-28T01:12:08;14.00;62.90
25906;DHT22;13713;52.552;13.204;2023-02-28T01:14:34;14.00;62.90
25906;DHT22;13713;52.552;13.204;2023-02-28T01:17:00;13.90;62.80
25906;DHT22;13713;52.552;13.204;2023-02-28T01:19:26;14.00;62.90
25906;DHT22;13713;52.552;13.204;2023-02-28T01:21:52;14.00;62.90
25906;DHT22;13713;52.552;13.204;2023-02-28T01:24:17;13.90;62.90
25906;DHT22;13713;52.552;13.204;2023-02-28T01:26:44;13.90;62.90
25906;DHT22;13713;52.552;13.204;2023-02-28T01:29:10;13.90;62.90
25906;DHT22;13713;52.552;13.204;2023-02-28T01:31:35;13.90;62.90
25906;DHT22;13713;52.552;13.204;2023-02-28T01:34:01;13.90;62.80
25906;DHT22;13713;52.552;13.204;2023-02-28T01:36:29;13.90;62.90
25906;DHT22;13713;52.552;13.204;2023-02-28T01:38:55;13.90;62.90
25906;DHT22;13713;52.552;13.204;2023-02-28T01:41:27;13.90;62.90
25906;DHT22;13713;52.552;13.204;2023-02-28T01:44:05;13.90;62.90
25906;DHT22;13713;52.552;13.204;2023-02-28T01:46:33;13.90;62.90
25906;DHT22;13713;52.552;13.204;2023-02-28T01:49:09;13.90;62.90
25906;DHT22;13713;52.552;13.204;2023-02-28T01:51:41;13.80;63.60
25906;DHT22;13713;52.552;13.204;2023-02-28T01:54:14;13.90;62.90
25906;DHT22;13713;52.552;13.204;2023-02-28T01:56:46;13.90;62.90
25906;DHT22;13713;52.552;13.204;2023-02-28T01:59:21;13.90;62.90
25906;DHT22;13713;52.552;13.204;2023-02-28T02:01:48;13.80;62.90
25906;DHT22;13713;52.552;13.204;2023-02-28T02:04:14;13.80;62.90
25906;DHT22;13713;52.552;13.204;2023-02-28T02:06:44;13.90;62.90
25906;DHT22;13713;52.552;13.204;2023-02-28T02:09:12;13.90;63.70
25906;DHT22;13713;52.552;13.204;2023-02-28T02:11:40;13.80;62.90
25906;DHT22;13713;52.552;13.204;2023-02-28T02:17:06;13.80;62.90
25906;DHT22;13713;52.552;13.204;2023-02-28T02:19:46;13.80;63.00
25906;DHT22;13713;52.552;13.204;2023-02-28T02:22:41;13.80;63.00
25906;DHT22;13713;52.552;13.204;2023-02-28T02:31:06;13.80;63.80
25906;DHT22;13713;52.552;13.204;2023-02-28T02:33:46;13.70;62.90
25906;DHT22;13713;52.552;13.204;2023-02-28T02:39:04;13.70;62.90
25906;DHT22;13713;52.552;13.204;2023-02-28T02:41:44;13.80;63.00
25906;DHT22;13713;52.552;13.204;2023-02-28T02:44:24;13.80;63.10
25906;DHT22;13713;52.552;13.204;2023-02-28T02:47:04;13.80;63.10
25906;DHT22;13713;52.552;13.204;2023-02-28T02:49:35;13.70;63.00
25906;DHT22;13713;52.552;13.204;2023-02-28T02:52:07;13.70;63.00
25906;DHT22;13713;52.552;13.204;2023-02-28T02:54:40;13.70;63.00
25906;DHT22;13713;52.552;13.204;2023-02-28T02:57:21;13.70;63.00
25906;DHT22;13713;52.552;13.204;2023-02-28T02:59:49;13.70;63.00
25906;DHT22;13713;52.552;13.204;2023-02-28T03:02:20;13.70;63.10
25906;DHT22;13713;52.552;13.204;2023-02-28T03:05:00;13.70;63.10
25906;DHT22;13713;52.552;13.204;2023-02-28T03:07:28;13.70;63.10
25906;DHT22;13713;52.552;13.204;2023-02-28T03:09:55;13.70;63.00
25906;DHT22;13713;52.552;13.204;2023-02-28T03:12:24;13.70;63.00
25906;DHT22;13713;52.552;13.204;2023-02-28T03:23:23;13.70;63.00
25906;DHT22;13713;52.552;13.204;2023-02-28T03:25:57;13.70;63.10
25906;DHT22;13713;52.552;13.204;2023-02-28T03:28:43;13.70;63.20
25906;DHT22;13713;52.552;13.204;2023-02-28T03:32:45;13.60;63.10
25906;DHT22;13713;52.552;13.204;2023-02-28T03:34:50;13.70;63.20
25906;DHT22;13713;52.552;13.204;2023-02-28T03:37:21;13.70;63.20
25906;DHT22;13713;52.552;13.204;2023-02-28T03:39:59;13.60;64.00
25906;DHT22;13713;52.552;13.204;2023-02-28T03:42:31;13.60;63.10
25906;DHT22;13713;52.552;13.204;2023-02-28T03:45:21;13.60;63.20
25906;DHT22;13713;52.552;13.204;2023-02-28T03:47:57;13.60;63.20
25906;DHT22;13713;52.552;13.204;2023-02-28T03:50:29;13.60;64.00
25906;DHT22;13713;52.552;13.204;2023-02-28T03:53:08;13.60;63.10
25906;DHT22;13713;52.552;13.204;2023-02-28T03:55:46;13.60;64.00
25906;DHT22;13713;52.552;13.204;2023-02-28T03:58:24;13.60;63.20
25906;DHT22;13713;52.552;13.204;2023-02-28T04:00:57;13.60;63.20
25906;DHT22;13713;52.552;13.204;2023-02-28T04:03:24;13.60;63.20
25906;DHT22;13713;52.552;13.204;2023-02-28T04:05:55;13.60;63.20
25906;DHT22;13713;52.552;13.204;2023-02-28T04:08:22;13.60;63.20
25906;DHT22;13713;52.552;13.204;2023-02-28T04:11:00;13.60;64.00
25906;DHT22;13713;52.552;13.204;2023-02-28T04:13:27;13.50;63.10
25906;DHT22;13713;52.552;13.204;2023-02-28T04:15:53;13.60;63.20
25906;DHT22;13713;52.552;13.204;2023-02-28T04:18:19;13.60;63.20
25906;DHT22;13713;52.552;13.204;2023-02-28T04:20:44;13.60;63.20
25906;DHT22;13713;52.552;13.204;2023-02-28T04:23:10;13.60;63.20
25906;DHT22;13713;52.552;13.204;2023-02-28T04:25:36;13.50;63.10
25906;DHT22;13713;52.552;13.204;2023-02-28T04:28:01;13.60;63.20
25906;DHT22;13713;52.552;13.204;2023-02-28T04:30:27;13.50;63.20
25906;DHT22;13713;52.552;13.204;2023-02-28T04:32:55;13.50;63.10
25906;DHT22;13713;52.552;13.204;2023-02-28T04:35:20;13.50;63.10
25906;DHT22;13713;52.552;13.204;2023-02-28T04:37:46;13.50;63.10
25906;DHT22;13713;52.552;13.204;2023-02-28T04:40:12;13.50;63.20
25906;DHT22;13713;52.552;13.204;2023-02-28T04:42:37;13.50;63.30
25906;DHT22;13713;52.552;13.204;2023-02-28T04:45:03;13.50;63.30
25906;DHT22;13713;52.552;13.204;2023-02-28T04:47:30;13.50;63.30
25906;DHT22;13713;52.552;13.204;2023-02-28T04:49:56;13.50;63.40
25906;DHT22;13713;52.552;13.204;2023-02-28T04:52:22;13.50;63.30
25906;DHT22;13713;52.552;13.204;2023-02-28T04:54:47;13.60;63.50
25906;DHT22;13713;52.552;13.204;2023-02-28T04:57:13;13.60;63.50
25906;DHT22;13713;52.552;13.204;2023-02-28T04:59:39;13.60;63.40
25906;DHT22;13713;52.552;13.204;2023-02-28T05:02:05;13.60;63.40
25906;DHT22;13713;52.552;13.204;2023-02-28T05:04:33;13.60;63.40
25906;DHT22;13713;52.552;13.204;2023-02-28T05:07:00;13.60;63.40
25906;DHT22;13713;52.552;13.204;2023-02-28T05:09:26;13.70;63.40
25906;DHT22;13713;52.552;13.204;2023-02-28T05:11:53;13.70;63.40
25906;DHT22;13713;52.552;13.204;2023-02-28T05:14:19;13.70;63.30
25906;DHT22;13713;52.552;13.204;2023-02-28T05:16:45;13.70;63.30
25906;DHT22;13713;52.552;13.204;2023-02-28T05:19:11;13.70;63.30
25906;DHT22;13713;52.552;13.204;2023-02-28T05:21:41;13.70;63.20
25906;DHT22;13713;52.552;13.204;2023-02-28T05:24:13;13.80;63.30
25906;DHT22;13713;52.552;13.204;2023-02-28T05:26:42;13.80;63.30
25906;DHT22;13713;52.552;13.204;2023-02-28T05:29:08;13.80;63.30
25906;DHT22;13713;52.552;13.204;2023-02-28T05:31:35;13.80;63.20
25906;DHT22;13713;52.552;13.204;2023-02-28T05:34:01;13.80;63.20
25906;DHT22;13713;52.552;13.204;2023-02-28T05:36:27;13.80;63.20
25906;DHT22;13713;52.552;13.204;2023-02-28T05:38:52;13.80;63.20
25906;DHT22;13713;52.552;13.204;2023-02-28T05:41:19;13.90;63.20
25906;DHT22;13713;52.552;13.204;2023-02-28T05:43:45;13.90;63.20
25906;DHT22;13713;52.552;13.204;2023-02-28T05:46:12;13.90;63.10
25906;DHT22;13713;52.552;13.204;2023-02-28T05:48:39;13.90;63.20
25906;DHT22;13713;52.552;13.204;2023-02-28T05:51:06;13.90;63.20
25906;DHT22;13713;52.552;13.204;2023-02-28T05:53:33;13.90;63.10
25906;DHT22;13713;52.552;13.204;2023-02-28T05:55:58;14.00;63.10
25906;DHT22;13713;52.552;13.204;2023-02-28T05:58:24;14.00;63.10
25906;DHT22;13713;52.552;13.204;2023-02-28T06:00:59;14.00;63.10
25906;DHT22;13713;52.552;13.204;2023-02-28T06:03:26;14.00;63.80
25906;DHT22;13713;52.552;13.204;2023-02-28T06:05:52;14.00;63.00
25906;DHT22;13713;52.552;13.204;2023-02-28T06:08:18;14.00;63.10
25906;DHT22;13713;52.552;13.204;2023-02-28T06:10:44;14.00;63.00
25906;DHT22;13713;52.552;13.204;2023-02-28T06:13:10;14.10;63.00
25906;DHT22;13713;52.552;13.204;2023-02-28T06:15:38;14.10;63.10
25906;DHT22;13713;52.552;13.204;2023-02-28T06:18:04;14.20;63.20
25906;DHT22;13713;52.552;13.204;2023-02-28T06:20:30;14.20;63.20
25906;DHT22;13713;52.552;13.204;2023-02-28T06:22:56;14.20;63.20
25906;DHT22;13713;52.552;13.204;2023-02-28T06:25:25;14.20;63.10
25906;DHT22;13713;52.552;13.204;2023-02-28T06:27:51;14.30;63.20
25906;DHT22;13713;52.552;13.204;2023-02-28T06:30:17;14.30;63.10
25906;DHT22;13713;52.552;13.204;2023-02-28T06:32:42;14.30;63.10
25906;DHT22;13713;52.552;13.204;2023-02-28T06:35:08;14.40;63.00
25906;DHT22;13713;52.552;13.204;2023-02-28T06:37:34;14.40;63.00
25906;DHT22;13713;52.552;13.204;2023-02-28T06:40:00;14.40;62.90
25906;DHT22;13713;52.552;13.204;2023-02-28T06:42:25;14.50;63.00
25906;DHT22;13713;52.552;13.204;2023-02-28T06:44:55;14.40;62.80
25906;DHT22;13713;52.552;13.204;2023-02-28T06:47:21;14.50;62.80
25906;DHT22;13713;52.552;13.204;2023-02-28T06:49:47;14.50;62.80
25906;DHT22;13713;52.552;13.204;2023-02-28T06:52:13;14.60;62.70
25906;DHT22;13713;52.552;13.204;2023-02-28T06:54:39;14.50;62.60
25906;DHT22;13713;52.552;13.204;2023-02-28T06:57:05;14.60;62.40
25906;DHT22;13713;52.552;13.204;2023-02-28T06:59:30;14.60;62.60
25906;DHT22;13713;52.552;13.204;2023-02-28T07:01:56;14.70;62.50
25906;DHT22;13713;52.552;13.204;2023-02-28T07:04:22;14.70;62.40
25906;DHT22;13713;52.552;13.204;2023-02-28T07:06:47;14.70;62.40
25906;DHT22;13713;52.552;13.204;2023-02-28T07:09:14;14.80;62.40
25906;DHT22;13713;52.552;13.204;2023-02-28T07:11:40;14.80;62.50
25906;DHT22;13713;52.552;13.204;2023-02-28T07:14:06;14.90;62.40
25906;DHT22;13713;52.552;13.204;2023-02-28T07:16:32;14.90;62.40
25906;DHT22;13713;52.552;13.204;2023-02-28T07:18:58;14.90;62.30
25906;DHT22;13713;52.552;13.204;2023-02-28T07:21:24;15.00;62.00
25906;DHT22;13713;52.552;13.204;2023-02-28T07:23:50;15.00;62.20
25906;DHT22;13713;52.552;13.204;2023-02-28T07:26:18;15.10;62.30
25906;DHT22;13713;52.552;13.204;2023-02-28T07:28:45;15.10;62.20
25906;DHT22;13713;52.552;13.204;2023-02-28T07:31:13;15.20;62.20
25906;DHT22;13713;52.552;13.204;2023-02-28T07:33:42;15.20;62.00
25906;DHT22;13713;52.552;13.204;2023-02-28T07:36:14;15.30;62.80
25906;DHT22;13713;52.552;13.204;2023-02-28T07:38:42;15.30;62.00
25906;DHT22;13713;52.552;13.204;2023-02-28T07:41:09;15.30;62.00
25906;DHT22;13713;52.552;13.204;2023-02-28T07:43:35;15.40;61.90
25906;DHT22;13713;52.552;13.204;2023-02-28T07:46:13;15.40;61.60
25906;DHT22;13713;52.552;13.204;2023-02-28T07:48:40;15.40;61.50
25906;DHT22;13713;52.552;13.204;2023-02-28T07:51:06;15.50;61.60
25906;DHT22;13713;52.552;13.204;2023-02-28T07:53:32;15.50;61.60
25906;DHT22;13713;52.552;13.204;2023-02-28T07:56:00;15.50;61.60
25906;DHT22;13713;52.552;13.204;2023-02-28T07:58:27;15.60;61.70
25906;DHT22;13713;52.552;13.204;2023-02-28T08:00:53;15.60;61.50
25906;DHT22;13713;52.552;13.204;2023-02-28T08:03:20;15.60;61.50
25906;DHT22;13713;52.552;13.204;2023-02-28T08:05:46;15.70;61.70
25906;DHT22;13713;52.552;13.204;2023-02-28T08:08:11;15.70;61.70
25906;DHT22;13713;52.552;13.204;2023-02-28T08:10:37;15.80;61.60
25906;DHT22;13713;52.552;13.204;2023-02-28T08:13:03;15.80;61.60
25906;DHT22;13713;52.552;13.204;2023-02-28T08:15:29;15.90;61.60
25906;DHT22;13713;52.552;13.204;2023-02-28T08:17:55;15.90;61.70
25906;DHT22;13713;52.552;13.204;2023-02-28T08:20:22;16.00;61.60
25906;DHT22;13713;52.552;13.204;2023-02-28T08:22:49;16.00;61.80
25906;DHT22;13713;52.552;13.204;2023-02-28T08:25:14;16.10;61.70
25906;DHT22;13713;52.552;13.204;2023-02-28T08:27:40;16.10;61.70
25906;DHT22;13713;52.552;13.204;2023-02-28T08:30:06;16.20;61.70
25906;DHT22;13713;52.552;13.204;2023-02-28T08:32:33;16.20;61.80
25906;DHT22;13713;52.552;13.204;2023-02-28T08:34:59;16.20;61.80
25906;DHT22;13713;52.552;13.204;2023-02-28T08:37:25;16.20;61.40
25906;DHT22;13713;52.552;13.204;2023-02-28T08:39:51;16.30;61.60
25906;DHT22;13713;52.552;13.204;2023-02-28T08:42:17;16.30;61.50
25906;DHT22;13713;52.552;13.204;2023-02-28T08:44:42;16.30;61.60
25906;DHT22;13713;52.552;13.204;2023-02-28T08:47:08;16.30;61.40
25906;DHT22;13713;52.552;13.204;2023-02-28T08:49:34;16.30;61.60
25906;DHT22;13713;52.552;13.204;2023-02-28T08:51:59;16.30;61.40
25906;DHT22;13713;52.552;13.204;2023-02-28T08:54:25;16.30;61.30
25906;DHT22;13713;52.552;13.204;2023-02-28T08:56:51;16.40;61.50
25906;DHT22;13713;52.552;13.204;2023-02-28T08:59:16;16.40;62.00
25906;DHT22;13713;52.552;13.204;2023-02-28T09:01:42;16.40;61.80
25906;DHT22;13713;52.552;13.204;2023-02-28T09:04:09;16.50;61.80
25906;DHT22;13713;52.552;13.204;2023-02-28T09:06:36;16.50;62.10
25906;DHT22;13713;52.552;13.204;2023-02-28T09:09:02;16.60;62.10
25906;DHT22;13713;52.552;13.204;2023-02-28T09:11:30;16.60;62.00
25906;DHT22;13713;52.552;13.204;2023-02-28T09:13:55;16.60;61.90
25906;DHT22;13713;52.552;13.204;2023-02-28T09:16:21;16.60;62.00
25906;DHT22;13713;52.552;13.204;2023-02-28T09:18:48;16.60;62.00
25906;DHT22;13713;52.552;13.204;2023-02-28T09:21:16;16.60;62.40
25906;DHT22;13713;52.552;13.204;2023-02-28T09:23:46;16.70;62.60
25906;DHT22;13713;52.552;13.204;2023-02-28T09:26:24;16.70;62.60
25906;DHT22;13713;52.552;13.204;2023-02-28T09:28:51;16.70;62.70
25906;DHT22;13713;52.552;13.204;2023-02-28T09:31:20;16.80;62.80
25906;DHT22;13713;52.552;13.204;2023-02-28T09:33:49;16.80;62.70
25906;DHT22;13713;52.552;13.204;2023-02-28T09:36:16;16.80;62.80
25906;DHT22;13713;52.552;13.204;2023-02-28T09:38:42;16.80;62.80
25906;DHT22;13713;52.552;13.204;2023-02-28T09:41:21;16.90;62.60
25906;DHT22;13713;52.552;13.204;2023-02-28T09:43:53;16.90;62.80
25906;DHT22;13713;52.552;13.204;2023-02-28T09:49:02;16.90;63.10
25906;DHT22;13713;52.552;13.204;2023-02-28T09:54:21;17.00;63.40
25906;DHT22;13713;52.552;13.204;2023-02-28T09:57:00;17.00;63.40
25906;DHT22;13713;52.552;13.204;2023-02-28T10:05:15;17.10;63.30
25906;DHT22;13713;52.552;13.204;2023-02-28T10:08:00;17.10;63.40
25906;DHT22;13713;52.552;13.204;2023-02-28T10:15:43;17.20;63.70
25906;DHT22;13713;52.552;13.204;2023-02-28T10:18:13;17.20;63.70
25906;DHT22;13713;52.552;13.204;2023-02-28T10:20:42;17.20;63.60
25906;DHT22;13713;52.552;13.204;2023-02-28T10:23:14;17.30;63.60
25906;DHT22;13713;52.552;13.204;2023-02-28T10:25:44;17.30;63.70
25906;DHT22;13713;52.552;13.204;2023-02-28T10:28:15;17.30;63.80
25906;DHT22;13713;52.552;13.204;2023-02-28T10:30:51;17.30;63.90
25906;DHT22;13713;52.552;13.204;2023-02-28T10:33:21;17.40;64.10
25906;DHT22;13713;52.552;13.204;2023-02-28T10:35:48;17.40;64.10
25906;DHT22;13713;52.552;13.204;2023-02-28T10:38:21;17.40;63.80
25906;DHT22;13713;52.552;13.204;2023-02-28T10:40:47;17.40;63.80
25906;DHT22;13713;52.552;13.204;2023-02-28T10:45:40;17.50;64.10
25906;DHT22;13713;52.552;13.204;2023-02-28T10:58:25;17.60;64.20
25906;DHT22;13713;52.552;13.204;2023-02-28T11:00:52;17.60;64.10
25906;DHT22;13713;52.552;13.204;2023-02-28T11:03:31;17.60;63.90
25906;DHT22;13713;52.552;13.204;2023-02-28T11:05:58;17.70;63.60
25906;DHT22;13713;52.552;13.204;2023-02-28T11:08:24;17.70;63.80
25906;DHT22;13713;52.552;13.204;2023-02-28T11:10:58;17.70;64.00
25906;DHT22;13713;52.552;13.204;2023-02-28T11:13:29;17.70;64.30
25906;DHT22;13713;52.552;13.204;2023-02-28T11:15:59;17.80;64.80
25906;DHT22;13713;52.552;13.204;2023-02-28T11:21:34;17.90;65.00
25906;DHT22;13713;52.552;13.204;2023-02-28T11:24:32;17.90;65.10
25906;DHT22;13713;52.552;13.204;2023-02-28T11:26:59;17.90;64.50
25906;DHT22;13713;52.552;13.204;2023-02-28T11:29:28;17.90;64.30
25906;DHT22;13713;52.552;13.204;2023-02-28T11:32:16;18.00;64.20
25906;DHT22;13713;52.552;13.204;2023-02-28T11:34:44;18.00;64.40
25906;DHT22;13713;52.552;13.204;2023-02-28T11:37:16;18.00;64.70
25906;DHT22;13713;52.552;13.204;2023-02-28T11:39:44;18.00;64.70
25906;DHT22;13713;52.552;13.204;2023-02-28T11:42:25;18.00;64.70
25906;DHT22;13713;52.552;13.204;2023-02-28T11:52:56;18.10;65.10
25906;DHT22;13713;52.552;13.204;2023-02-28T12:01:26;18.20;64.80
25906;DHT22;13713;52.552;13.204;2023-02-28T12:03:44;18.20;64.60
25906;DHT22;13713;52.552;13.204;2023-02-28T12:20:34;18.20;63.70
25906;DHT22;13713;52.552;13.204;2023-02-28T12:23:42;18.30;63.40
25906;DHT22;13713;52.552;13.204;2023-02-28T12:29:01;18.30;63.70
25906;DHT22;13713;52.552;13.204;2023-02-28T12:31:33;18.40;63.70
25906;DHT22;13713;52.552;13.204;2023-02-28T12:34:12;18.30;63.20
25906;DHT22;13713;52.552;13.204;2023-02-28T12:36:41;18.30;62.70
25906;DHT22;13713;52.552;13.204;2023-02-28T12:39:24;18.40;62.90
25906;DHT22;13713;52.552;13.204;2023-02-28T12:41:56;18.30;62.70
25906;DHT22;13713;52.552;13.204;2023-02-28T12:44:30;18.40;62.70
25906;DHT22;13713;52.552;13.204;2023-02-28T12:47:02;18.30;62.60
25906;DHT22;13713;52.552;13.204;2023-02-28T12:52:11;18.40;62.40
25906;DHT22;13713;52.552;13.204;2023-02-28T12:59:55;18.50;64.10
25906;DHT22;13713;52.552;13.204;2023-02-28T13:10:50;18.60;65.10
25906;DHT22;13713;52.552;13.204;2023-02-28T13:13:22;18.70;64.40
25906;DHT22;13713;52.552;13.204;2023-02-28T13:16:07;18.70;64.60
25906;DHT22;13713;52.552;13.204;2023-02-28T13:21:03;18.70;64.40
25906;DHT22;13713;52.552;13.204;2023-02-28T13:23:58;18.80;64.00
25906;DHT22;13713;52.552;13.204;2023-02-28T13:34:33;18.80;63.70
25906;DHT22;13713;52.552;13.204;2023-02-28T13:37:42;18.90;63.60
25906;DHT22;13713;52.552;13.204;2023-02-28T13:42:47;18.90;63.20
25906;DHT22;13713;52.552;13.204;2023-02-28T13:45:29;18.90;63.40
25906;DHT22;13713;52.552;13.204;2023-02-28T13:48:15;18.90;63.80
25906;DHT22;13713;52.552;13.204;2023-02-28T13:50:42;18.90;64.10
25906;DHT22;13713;52.552;13.204;2023-02-28T13:55:44;18.90;63.80
25906;DHT22;13713;52.552;13.204;2023-02-28T13:58:44;18.90;63.80
25906;DHT22;13713;52.552;13.204;2023-02-28T14:01:29;19.00;64.20
25906;DHT22;13713;52.552;13.204;2023-02-28T14:06:53;19.00;64.30
25906;DHT22;13713;52.552;13.204;2023-02-28T14:11:55;19.00;64.20
25906;DHT22;13713;52.552;13.204;2023-02-28T14:17:04;19.00;64.10
25906;DHT22;13713;52.552;13.204;2023-02-28T14:19:32;19.10;64.40
25906;DHT22;13713;52.552;13.204;2023-02-28T14:25:01;19.10;64.80
25906;DHT22;13713;52.552;13.204;2023-02-28T14:27:53;19.10;64.90
25906;DHT22;13713;52.552;13.204;2023-02-28T14:33:31;19.10;64.70
25906;DHT22;13713;52.552;13.204;2023-02-28T14:38:32;19.20;65.20
25906;DHT22;13713;52.552;13.204;2023-02-28T14:41:12;19.20;65.20
25906;DHT22;13713;52.552;13.204;2023-02-28T14:43:56;19.20;65.10
25906;DHT22;13713;52.552;13.204;2023-02-28T14:46:25;19.20;65.00
25906;DHT22;13713;52.552;13.204;2023-02-28T14:48:52;19.20;65.10
25906;DHT22;13713;52.552;13.204;2023-02-28T14:51:20;19.20;65.00
25906;DHT22;13713;52.552;13.204;2023-02-28T14:53:50;19.30;65.30
25906;DHT22;13713;52.552;13.204;2023-02-28T14:56:22;19.30;64.70
25906;DHT22;13713;52.552;13.204;2023-02-28T14:58:53;19.30;64.70
25906;DHT22;13713;52.552;13.204;2023-02-28T15:01:20;19.30;64.60
25906;DHT22;13713;52.552;13.204;2023-02-28T15:03:47;19.30;65.00
25906;DHT22;13713;52.552;13.204;2023-02-28T15:06:15;19.30;65.00
25906;DHT22;13713;52.552;13.204;2023-02-28T15:08:46;19.30;64.90
25906;DHT22;13713;52.552;13.204;2023-02-28T15:11:16;19.30;64.70
25906;DHT22;13713;52.552;13.204;2023-02-28T15:13:54;19.30;64.50
25906;DHT22;13713;52.552;13.204;2023-02-28T15:16:36;19.20;63.80
25906;DHT22;13713;52.552;13.204;2023-02-28T15:19:26;19.20;63.20
25906;DHT22;13713;52.552;13.204;2023-02-28T15:22:06;19.10;62.90
25906;DHT22;13713;52.552;13.204;2023-02-28T15:24:40;19.10;62.80
25906;DHT22;13713;52.552;13.204;2023-02-28T15:27:14;19.00;62.80
25906;DHT22;13713;52.552;13.204;2023-02-28T15:29:48;18.90;62.70
25906;DHT22;13713;52.552;13.204;2023-02-28T15:32:37;18.90;63.40
25906;DHT22;13713;52.552;13.204;2023-02-28T15:35:28;18.80;63.50
25906;DHT22;13713;52.552;13.204;2023-02-28T15:38:03;18.80;62.50
25906;DHT22;13713;52.552;13.204;2023-02-28T15:40:41;18.70;62.30
25906;DHT22;13713;52.552;13.204;2023-02-28T15:45:51;18.60;62.20
25906;DHT22;13713;52.552;13.204;2023-02-28T15:48:27;18.50;62.20
25906;DHT22;13713;52.552;13.204;2023-02-28T15:51:02;18.50;62.10
25906;DHT22;13713;52.552;13.204;2023-02-28T15:53:54;18.40;62.70
25906;DHT22;13713;52.552;13.204;2023-02-28T15:58:59;18.40;61.90
25906;DHT22;13713;52.552;13.204;2023-02-28T16:01:36;18.30;61.90
25906;DHT22;13713;52.552;13.204;2023-02-28T16:04:14;18.30;62.00
25906;DHT22;13713;52.552;13.204;2023-02-28T16:09:29;18.20;61.50
25906;DHT22;13713;52.552;13.204;2023-02-28T16:12:00;18.20;61.90
25906;DHT22;13713;52.552;13.204;2023-02-28T16:14:30;18.10;61.90
25906;DHT22;13713;52.552;13.204;2023-02-28T16:17:07;18.10;62.00
25906;DHT22;13713;52.552;13.204;2023-02-28T16:19:37;18.00;61.80
25906;DHT22;13713;52.552;13.204;2023-02-28T16:22:03;18.00;62.00
25906;DHT22;13713;52.552;13.204;2023-02-28T16:24:29;18.00;61.80
25906;DHT22;13713;52.552;13.204;2023-02-28T16:26:55;18.00;62.70
25906;DHT22;13713;52.552;13.204;2023-02-28T16:29:34;18.00;61.90
25906;DHT22;13713;52.552;13.204;2023-02-28T16:32:03;17.90;61.90
25906;DHT22;13713;52.552;13.204;2023-02-28T16:34:29;17.80;61.80
25906;DHT22;13713;52.552;13.204;2023-02-28T16:36:55;17.80;61.80
25906;DHT22;13713;52.552;13.204;2023-02-28T16:39:20;17.80;62.00
25906;DHT22;13713;52.552;13.204;2023-02-28T16:41:48;17.80;62.20
25906;DHT22;13713;52.552;13.204;2023-02-28T16:44:28;17.80;62.10
25906;DHT22;13713;52.552;13.204;2023-02-28T16:46:55;17.70;62.10
25906;DHT22;13713;52.552;13.204;2023-02-28T16:49:21;17.70;62.30
25906;DHT22;13713;52.552;13.204;2023-02-28T16:51:46;17.70;63.10
25906;DHT22;13713;52.552;13.204;2023-02-28T16:54:12;17.70;62.50
25906;DHT22;13713;52.552;13.204;2023-02-28T16:56:41;17.60;62.40
25906;DHT22;13713;52.552;13.204;2023-02-28T16:59:08;17.60;62.40
25906;DHT22;13713;52.552;13.204;2023-02-28T17:01:34;17.60;62.50
25906;DHT22;13713;52.552;13.204;2023-02-28T17:03:59;17.60;63.40
25906;DHT22;13713;52.552;13.204;2023-02-28T17:06:28;17.50;62.60
25906;DHT22;13713;52.552;13.204;2023-02-28T17:08:55;17.50;62.60
25906;DHT22;13713;52.552;13.204;2023-02-28T17:11:21;17.50;62.70
25906;DHT22;13713;52.552;13.204;2023-02-28T17:13:47;17.40;62.70
25906;DHT22;13713;52.552;13.204;2023-02-28T17:16:30;17.40;62.70
25906;DHT22;13713;52.552;13.204;2023-02-28T17:19:03;17.40;62.70
25906;DHT22;13713;52.552;13.204;2023-02-28T17:21:30;17.40;62.80
25906;DHT22;13713;52.552;13.204;2023-02-28T17:23:57;17.40;62.90
25906;DHT22;13713;52.552;13.204;2023-02-28T17:26:23;17.30;62.90
25906;DHT22;13713;52.552;13.204;2023-02-28T17:28:55;17.30;63.00
25906;DHT22;13713;52.552;13.204;2023-02-28T17:31:25;17.30;63.00
25906;DHT22;13713;52.552;13.204;2023-02-28T17:33:51;17.30;63.10
25906;DHT22;13713;52.552;13.204;2023-02-28T17:36:24;17.20;63.00
25906;DHT22;13713;52.552;13.204;2023-02-28T17:38:52;17.20;63.20
25906;DHT22;13713;52.552;13.204;2023-02-28T17:41:18;17.20;63.10
25906;DHT22;13713;52.552;13.204;2023-02-28T17:43:44;17.20;63.20
25906;DHT22;13713;52.552;13.204;2023-02-28T17:46:21;17.10;63.10
25906;DHT22;13713;52.552;13.204;2023-02-28T17:48:48;17.10;63.20
25906;DHT22;13713;52.552;13.204;2023-02-28T17:51:14;17.10;63.20
25906;DHT22;13713;52.552;13.204;2023-02-28T17:53:41;17.10;64.00